sensor_id;sensor_type;location;lat;lon;timestamp;temperature;humidity
47805;DHT22;33568;45.286;9.900;2022-07-30T00:00:30;28.50;78.70
47805;DHT22;33568;45.286;9.900;2022-07-30T00:02:56;28.40;78.90
47805;DHT22;33568;45.286;9.900;2022-07-30T00:05:22;28.40;79.20
47805;DHT22;33568;45.286;9.900;2022-07-30T00:07:49;28.30;79.20
47805;DHT22;33568;45.286;9.900;2022-07-30T00:10:15;28.30;79.10
47805;DHT22;33568;45.286;9.900;2022-07-30T00:12:41;28.30;79.30
47805;DHT22;33568;45.286;9.900;2022-07-30T00:15:08;28.20;79.40
47805;DHT22;33568;45.286;9.900;2022-07-30T00:17:35;28.20;79.50
47805;DHT22;33568;45.286;9.900;2022-07-30T00:20:03;28.20;79.30
47805;DHT22;33568;45.286;9.900;2022-07-30T00:22:30;28.20;79.30
47805;DHT22;33568;45.286;9.900;2022-07-30T00:24:56;28.00;79.40
47805;DHT22;33568;45.286;9.900;2022-07-30T00:27:23;27.90;79.70
47805;DHT22;33568;45.286;9.900;2022-07-30T00:29:50;27.90;80.00
47805;DHT22;33568;45.286;9.900;2022-07-30T00:32:16;27.80;80.00
47805;DHT22;33568;45.286;9.900;2022-07-30T00:34:42;27.80;80.40
47805;DHT22;33568;45.286;9.900;2022-07-30T00:37:09;27.80;80.40
47805;DHT22;33568;45.286;9.900;2022-07-30T00:39:35;27.80;80.30
47805;DHT22;33568;45.286;9.900;2022-07-30T00:42:02;27.70;80.20
47805;DHT22;33568;45.286;9.900;2022-07-30T00:44:29;27.60;80.20
47805;DHT22;33568;45.286;9.900;2022-07-30T00:46:56;27.60;80.50
47805;DHT22;33568;45.286;9.900;2022-07-30T00:49:23;27.60;80.70
47805;DHT22;33568;45.286;9.900;2022-07-30T00:51:49;27.70;80.50
47805;DHT22;33568;45.286;9.900;2022-07-30T00:54:17;27.70;80.50
47805;DHT22;33568;45.286;9.900;2022-07-30T00:56:43;27.80;80.20
47805;DHT22;33568;45.286;9.900;2022-07-30T00:59:12;27.80;80.00
47805;DHT22;33568;45.286;9.900;2022-07-30T01:01:39;27.80;79.70
47805;DHT22;33568;45.286;9.900;2022-07-30T01:04:05;27.70;79.70
47805;DHT22;33568;45.286;9.900;2022-07-30T01:06:37;27.60;80.00
47805;DHT22;33568;45.286;9.900;2022-07-30T01:09:05;27.60;80.30
47805;DHT22;33568;45.286;9.900;2022-07-30T01:11:40;27.50;80.10
47805;DHT22;33568;45.286;9.900;2022-07-30T01:14:08;27.40;80.30
47805;DHT22;33568;45.286;9.900;2022-07-30T01:16:35;27.40;80.50
47805;DHT22;33568;45.286;9.900;2022-07-30T01:19:05;27.50;80.70
47805;DHT22;33568;45.286;9.900;2022-07-30T01:22:13;27.50;80.40
47805;DHT22;33568;45.286;9.900;2022-07-30T01:25:03;27.40;81.10
47805;DHT22;33568;45.286;9.900;2022-07-30T01:27:46;27.20;80.50
47805;DHT22;33568;45.286;9.900;2022-07-30T01:30:18;27.20;80.70
47805;DHT22;33568;45.286;9.900;2022-07-30T01:32:46;27.10;81.00
47805;DHT22;33568;45.286;9.900;2022-07-30T01:35:13;27.10;81.30
47805;DHT22;33568;45.286;9.900;2022-07-30T01:37:44;27.10;81.60
47805;DHT22;33568;45.286;9.900;2022-07-30T01:40:12;27.10;81.60
47805;DHT22;33568;45.286;9.900;2022-07-30T01:42:41;27.20;81.70
47805;DHT22;33568;45.286;9.900;2022-07-30T01:45:10;27.10;81.50
47805;DHT22;33568;45.286;9.900;2022-07-30T01:47:38;27.10;81.50
47805;DHT22;33568;45.286;9.900;2022-07-30T01:50:10;27.00;81.50
47805;DHT22;33568;45.286;9.900;2022-07-30T01:52:42;26.90;81.90
47805;DHT22;33568;45.286;9.900;2022-07-30T01:55:13;26.90;81.90
47805;DHT22;33568;45.286;9.900;2022-07-30T01:57:41;26.90;82.00
47805;DHT22;33568;45.286;9.900;2022-07-30T02:00:09;26.80;82.30
47805;DHT22;33568;45.286;9.900;2022-07-30T02:02:45;26.80;82.20
47805;DHT22;33568;45.286;9.900;2022-07-30T02:05:13;26.80;82.40
47805;DHT22;33568;45.286;9.900;2022-07-30T02:07:52;26.70;82.70
47805;DHT22;33568;45.286;9.900;2022-07-30T02:10:45;26.60;82.90
47805;DHT22;33568;45.286;9.900;2022-07-30T02:13:21;26.60;83.00
47805;DHT22;33568;45.286;9.900;2022-07-30T02:16:28;26.50;83.30
47805;DHT22;33568;45.286;9.900;2022-07-30T02:19:03;26.60;83.60
47805;DHT22;33568;45.286;9.900;2022-07-30T02:21:39;26.50;83.10
47805;DHT22;33568;45.286;9.900;2022-07-30T02:24:14;26.60;83.60
47805;DHT22;33568;45.286;9.900;2022-07-30T02:26:42;26.80;83.30
47805;DHT22;33568;45.286;9.900;2022-07-30T02:29:13;26.80;83.20
47805;DHT22;33568;45.286;9.900;2022-07-30T02:31:41;26.90;83.10
47805;DHT22;33568;45.286;9.900;2022-07-30T02:34:09;26.90;82.70
47805;DHT22;33568;45.286;9.900;2022-07-30T02:36:38;26.90;82.40
47805;DHT22;33568;45.286;9.900;2022-07-30T02:39:08;26.90;82.60
47805;DHT22;33568;45.286;9.900;2022-07-30T02:41:37;26.90;82.50
47805;DHT22;33568;45.286;9.900;2022-07-30T02:44:05;26.90;82.40
47805;DHT22;33568;45.286;9.900;2022-07-30T02:46:33;26.90;82.50
47805;DHT22;33568;45.286;9.900;2022-07-30T02:49:21;26.90;82.60
47805;DHT22;33568;45.286;9.900;2022-07-30T02:51:50;26.90;82.40
47805;DHT22;33568;45.286;9.900;2022-07-30T02:54:18;26.80;82.50
47805;DHT22;33568;45.286;9.900;2022-07-30T02:56:46;26.80;82.70
47805;DHT22;33568;45.286;9.900;2022-07-30T02:59:15;26.90;82.60
47805;DHT22;33568;45.286;9.900;2022-07-30T03:01:43;26.90;82.50
47805;DHT22;33568;45.286;9.900;2022-07-30T03:04:12;26.90;82.40
47805;DHT22;33568;45.286;9.900;2022-07-30T03:06:42;26.80;82.40
47805;DHT22;33568;45.286;9.900;2022-07-30T03:09:09;26.80;82.50
47805;DHT22;33568;45.286;9.900;2022-07-30T03:11:36;26.80;82.50
47805;DHT22;33568;45.286;9.900;2022-07-30T03:14:03;26.80;82.80
47805;DHT22;33568;45.286;9.900;2022-07-30T03:16:34;26.80;82.80
47805;DHT22;33568;45.286;9.900;2022-07-30T03:19:02;26.80;82.70
47805;DHT22;33568;45.286;9.900;2022-07-30T03:21:31;26.80;82.70
47805;DHT22;33568;45.286;9.900;2022-07-30T03:24:01;26.80;82.70
47805;DHT22;33568;45.286;9.900;2022-07-30T03:26:29;26.70;82.80
47805;DHT22;33568;45.286;9.900;2022-07-30T03:28:57;26.80;83.00
47805;DHT22;33568;45.286;9.900;2022-07-30T03:31:24;26.70;82.90
47805;DHT22;33568;45.286;9.900;2022-07-30T03:33:50;26.80;83.20
47805;DHT22;33568;45.286;9.900;2022-07-30T03:36:17;26.80;83.10
47805;DHT22;33568;45.286;9.900;2022-07-30T03:38:45;26.80;83.10
47805;DHT22;33568;45.286;9.900;2022-07-30T03:41:13;26.80;83.00
47805;DHT22;33568;45.286;9.900;2022-07-30T03:43:41;26.90;83.00
47805;DHT22;33568;45.286;9.900;2022-07-30T03:46:09;27.10;82.40
47805;DHT22;33568;45.286;9.900;2022-07-30T03:48:40;27.20;82.20
47805;DHT22;33568;45.286;9.900;2022-07-30T03:51:07;27.30;81.80
47805;DHT22;33568;45.286;9.900;2022-07-30T03:53:39;27.20;81.80
47805;DHT22;33568;45.286;9.900;2022-07-30T03:56:39;27.20;81.80
47805;DHT22;33568;45.286;9.900;2022-07-30T03:59:13;27.40;81.50
47805;DHT22;33568;45.286;9.900;2022-07-30T04:01:42;27.60;80.90
47805;DHT22;33568;45.286;9.900;2022-07-30T04:04:19;27.60;80.40
47805;DHT22;33568;45.286;9.900;2022-07-30T04:06:48;27.70;80.10
47805;DHT22;33568;45.286;9.900;2022-07-30T04:09:14;27.70;79.80
47805;DHT22;33568;45.286;9.900;2022-07-30T04:11:42;27.70;79.60
47805;DHT22;33568;45.286;9.900;2022-07-30T04:14:13;27.70;79.50
47805;DHT22;33568;45.286;9.900;2022-07-30T04:16:50;27.70;79.40
47805;DHT22;33568;45.286;9.900;2022-07-30T04:19:45;27.80;79.40
47805;DHT22;33568;45.286;9.900;2022-07-30T04:22:11;27.70;79.20
47805;DHT22;33568;45.286;9.900;2022-07-30T04:24:41;27.70;79.30
47805;DHT22;33568;45.286;9.900;2022-07-30T04:27:09;27.70;79.30
47805;DHT22;33568;45.286;9.900;2022-07-30T04:29:37;27.70;79.30
47805;DHT22;33568;45.286;9.900;2022-07-30T04:32:07;27.70;79.10
47805;DHT22;33568;45.286;9.900;2022-07-30T04:34:57;27.40;78.90
47805;DHT22;33568;45.286;9.900;2022-07-30T04:37:53;27.10;79.70
47805;DHT22;33568;45.286;9.900;2022-07-30T04:40:19;26.70;81.10
47805;DHT22;33568;45.286;9.900;2022-07-30T04:42:46;26.40;82.00
47805;DHT22;33568;45.286;9.900;2022-07-30T04:45:12;26.20;83.00
47805;DHT22;33568;45.286;9.900;2022-07-30T04:47:50;26.00;83.90
47805;DHT22;33568;45.286;9.900;2022-07-30T04:50:22;25.90;84.80
47805;DHT22;33568;45.286;9.900;2022-07-30T04:52:50;25.80;85.40
47805;DHT22;33568;45.286;9.900;2022-07-30T04:55:24;25.70;85.90
47805;DHT22;33568;45.286;9.900;2022-07-30T04:57:51;25.60;86.50
47805;DHT22;33568;45.286;9.900;2022-07-30T05:00:19;25.70;86.90
47805;DHT22;33568;45.286;9.900;2022-07-30T05:02:48;25.80;86.80
47805;DHT22;33568;45.286;9.900;2022-07-30T05:05:16;25.80;86.60
47805;DHT22;33568;45.286;9.900;2022-07-30T05:07:45;25.90;86.50
47805;DHT22;33568;45.286;9.900;2022-07-30T05:10:12;25.90;86.40
47805;DHT22;33568;45.286;9.900;2022-07-30T05:12:40;26.10;86.50
47805;DHT22;33568;45.286;9.900;2022-07-30T05:15:08;26.10;86.60
47805;DHT22;33568;45.286;9.900;2022-07-30T05:17:36;26.10;86.40
47805;DHT22;33568;45.286;9.900;2022-07-30T05:20:05;26.10;86.60
47805;DHT22;33568;45.286;9.900;2022-07-30T05:22:48;26.10;86.70
47805;DHT22;33568;45.286;9.900;2022-07-30T05:25:15;26.00;86.90
47805;DHT22;33568;45.286;9.900;2022-07-30T05:27:44;26.00;87.10
47805;DHT22;33568;45.286;9.900;2022-07-30T05:30:11;26.00;87.20
47805;DHT22;33568;45.286;9.900;2022-07-30T05:32:43;26.00;87.10
47805;DHT22;33568;45.286;9.900;2022-07-30T05:35:10;26.10;86.90
47805;DHT22;33568;45.286;9.900;2022-07-30T05:37:36;26.20;86.70
47805;DHT22;33568;45.286;9.900;2022-07-30T05:40:04;26.20;86.80
47805;DHT22;33568;45.286;9.900;2022-07-30T05:42:52;26.20;86.70
47805;DHT22;33568;45.286;9.900;2022-07-30T05:45:18;26.30;86.60
47805;DHT22;33568;45.286;9.900;2022-07-30T05:47:45;26.40;86.60
47805;DHT22;33568;45.286;9.900;2022-07-30T05:50:12;26.40;86.40
47805;DHT22;33568;45.286;9.900;2022-07-30T05:52:38;26.40;86.40
47805;DHT22;33568;45.286;9.900;2022-07-30T05:55:20;26.40;86.50
47805;DHT22;33568;45.286;9.900;2022-07-30T05:57:55;26.40;86.80
47805;DHT22;33568;45.286;9.900;2022-07-30T06:00:22;26.50;86.80
47805;DHT22;33568;45.286;9.900;2022-07-30T06:02:53;26.50;86.60
47805;DHT22;33568;45.286;9.900;2022-07-30T06:05:25;26.50;86.40
47805;DHT22;33568;45.286;9.900;2022-07-30T06:07:53;26.60;86.20
47805;DHT22;33568;45.286;9.900;2022-07-30T06:10:22;26.70;86.10
47805;DHT22;33568;45.286;9.900;2022-07-30T06:12:48;26.70;86.10
47805;DHT22;33568;45.286;9.900;2022-07-30T06:15:18;26.70;85.90
47805;DHT22;33568;45.286;9.900;2022-07-30T06:17:46;26.80;85.80
47805;DHT22;33568;45.286;9.900;2022-07-30T06:20:27;26.80;85.60
47805;DHT22;33568;45.286;9.900;2022-07-30T06:23:04;26.90;85.50
47805;DHT22;33568;45.286;9.900;2022-07-30T06:25:46;26.90;85.30
47805;DHT22;33568;45.286;9.900;2022-07-30T06:28:15;27.00;85.20
47805;DHT22;33568;45.286;9.900;2022-07-30T06:30:42;26.90;85.10
47805;DHT22;33568;45.286;9.900;2022-07-30T06:33:16;26.90;85.00
47805;DHT22;33568;45.286;9.900;2022-07-30T06:35:43;27.00;84.90
47805;DHT22;33568;45.286;9.900;2022-07-30T06:38:12;26.90;85.10
47805;DHT22;33568;45.286;9.900;2022-07-30T06:40:52;26.90;85.40
47805;DHT22;33568;45.286;9.900;2022-07-30T06:43:36;26.90;85.50
47805;DHT22;33568;45.286;9.900;2022-07-30T06:46:25;27.00;85.40
47805;DHT22;33568;45.286;9.900;2022-07-30T06:48:52;27.00;84.90
47805;DHT22;33568;45.286;9.900;2022-07-30T06:51:19;27.10;84.70
47805;DHT22;33568;45.286;9.900;2022-07-30T06:53:46;27.00;84.90
47805;DHT22;33568;45.286;9.900;2022-07-30T06:56:12;27.20;84.50
47805;DHT22;33568;45.286;9.900;2022-07-30T06:58:55;27.40;84.10
47805;DHT22;33568;45.286;9.900;2022-07-30T07:01:42;27.40;83.60
47805;DHT22;33568;45.286;9.900;2022-07-30T07:04:08;27.40;83.60
47805;DHT22;33568;45.286;9.900;2022-07-30T07:06:38;27.30;84.00
47805;DHT22;33568;45.286;9.900;2022-07-30T07:09:06;27.30;84.00
47805;DHT22;33568;45.286;9.900;2022-07-30T07:11:46;27.40;83.90
47805;DHT22;33568;45.286;9.900;2022-07-30T07:14:17;27.50;83.50
47805;DHT22;33568;45.286;9.900;2022-07-30T07:16:43;27.70;83.20
47805;DHT22;33568;45.286;9.900;2022-07-30T07:19:33;27.80;82.80
47805;DHT22;33568;45.286;9.900;2022-07-30T07:22:00;27.90;82.30
47805;DHT22;33568;45.286;9.900;2022-07-30T07:24:26;28.00;82.10
47805;DHT22;33568;45.286;9.900;2022-07-30T07:26:56;28.20;81.50
47805;DHT22;33568;45.286;9.900;2022-07-30T07:29:23;28.40;81.00
47805;DHT22;33568;45.286;9.900;2022-07-30T07:31:49;28.50;80.30
47805;DHT22;33568;45.286;9.900;2022-07-30T07:34:16;28.60;79.90
47805;DHT22;33568;45.286;9.900;2022-07-30T07:36:42;28.50;79.80
47805;DHT22;33568;45.286;9.900;2022-07-30T07:39:10;28.60;79.70
47805;DHT22;33568;45.286;9.900;2022-07-30T07:41:38;28.60;79.50
47805;DHT22;33568;45.286;9.900;2022-07-30T07:44:05;28.60;79.40
47805;DHT22;33568;45.286;9.900;2022-07-30T07:46:33;28.60;79.40
47805;DHT22;33568;45.286;9.900;2022-07-30T07:49:01;28.70;79.50
47805;DHT22;33568;45.286;9.900;2022-07-30T07:51:37;28.80;78.90
47805;DHT22;33568;45.286;9.900;2022-07-30T07:54:07;29.00;78.40
47805;DHT22;33568;45.286;9.900;2022-07-30T07:56:33;29.40;77.50
47805;DHT22;33568;45.286;9.900;2022-07-30T07:59:01;29.40;77.00
47805;DHT22;33568;45.286;9.900;2022-07-30T08:01:30;29.30;77.00
47805;DHT22;33568;45.286;9.900;2022-07-30T08:04:16;29.30;77.10
47805;DHT22;33568;45.286;9.900;2022-07-30T08:07:10;29.20;77.00
47805;DHT22;33568;45.286;9.900;2022-07-30T08:09:56;29.20;77.10
47805;DHT22;33568;45.286;9.900;2022-07-30T08:12:48;29.30;76.90
47805;DHT22;33568;45.286;9.900;2022-07-30T08:15:54;29.40;76.50
47805;DHT22;33568;45.286;9.900;2022-07-30T08:18:24;29.50;76.10
47805;DHT22;33568;45.286;9.900;2022-07-30T08:21:02;29.50;75.90
47805;DHT22;33568;45.286;9.900;2022-07-30T08:23:34;29.60;75.50
47805;DHT22;33568;45.286;9.900;2022-07-30T08:26:00;29.70;75.20
47805;DHT22;33568;45.286;9.900;2022-07-30T08:28:27;29.90;74.80
47805;DHT22;33568;45.286;9.900;2022-07-30T08:30:53;29.90;74.30
47805;DHT22;33568;45.286;9.900;2022-07-30T08:33:20;29.90;74.20
47805;DHT22;33568;45.286;9.900;2022-07-30T08:35:46;29.90;73.70
47805;DHT22;33568;45.286;9.900;2022-07-30T08:38:13;29.90;73.90
47805;DHT22;33568;45.286;9.900;2022-07-30T08:40:40;30.00;73.60
47805;DHT22;33568;45.286;9.900;2022-07-30T08:43:07;30.00;73.40
47805;DHT22;33568;45.286;9.900;2022-07-30T08:45:34;30.00;73.20
47805;DHT22;33568;45.286;9.900;2022-07-30T08:48:20;30.00;73.20
47805;DHT22;33568;45.286;9.900;2022-07-30T08:50:50;30.00;72.70
47805;DHT22;33568;45.286;9.900;2022-07-30T08:53:46;30.20;73.00
47805;DHT22;33568;45.286;9.900;2022-07-30T08:56:13;30.40;72.40
47805;DHT22;33568;45.286;9.900;2022-07-30T08:58:40;30.30;72.10
47805;DHT22;33568;45.286;9.900;2022-07-30T09:01:08;30.30;72.00
47805;DHT22;33568;45.286;9.900;2022-07-30T09:03:36;30.50;71.60
47805;DHT22;33568;45.286;9.900;2022-07-30T09:06:04;30.60;71.00
47805;DHT22;33568;45.286;9.900;2022-07-30T09:08:31;30.80;70.50
47805;DHT22;33568;45.286;9.900;2022-07-30T09:10:58;30.90;70.10
47805;DHT22;33568;45.286;9.900;2022-07-30T09:13:35;31.10;69.60
47805;DHT22;33568;45.286;9.900;2022-07-30T09:16:04;31.00;68.50
47805;DHT22;33568;45.286;9.900;2022-07-30T09:18:37;31.10;69.10
47805;DHT22;33568;45.286;9.900;2022-07-30T09:24:11;31.20;67.50
47805;DHT22;33568;45.286;9.900;2022-07-30T09:27:07;31.30;67.90
47805;DHT22;33568;45.286;9.900;2022-07-30T09:29:57;31.30;67.50
47805;DHT22;33568;45.286;9.900;2022-07-30T09:32:53;31.30;67.40
47805;DHT22;33568;45.286;9.900;2022-07-30T09:35:39;31.40;66.70
47805;DHT22;33568;45.286;9.900;2022-07-30T09:38:09;31.50;67.60
47805;DHT22;33568;45.286;9.900;2022-07-30T09:41:02;31.50;66.80
47805;DHT22;33568;45.286;9.900;2022-07-30T09:44:02;31.50;66.70
47805;DHT22;33568;45.286;9.900;2022-07-30T09:46:47;31.70;66.10
47805;DHT22;33568;45.286;9.900;2022-07-30T09:49:36;31.60;65.60
47805;DHT22;33568;45.286;9.900;2022-07-30T09:52:02;31.80;66.10
47805;DHT22;33568;45.286;9.900;2022-07-30T09:54:49;31.90;65.40
47805;DHT22;33568;45.286;9.900;2022-07-30T09:57:16;31.70;65.20
47805;DHT22;33568;45.286;9.900;2022-07-30T09:59:43;31.70;65.70
47805;DHT22;33568;45.286;9.900;2022-07-30T10:02:11;31.90;65.90
47805;DHT22;33568;45.286;9.900;2022-07-30T10:05:18;31.90;65.80
47805;DHT22;33568;45.286;9.900;2022-07-30T10:10:23;32.10;65.50
47805;DHT22;33568;45.286;9.900;2022-07-30T10:12:53;32.20;65.40
47805;DHT22;33568;45.286;9.900;2022-07-30T10:15:20;32.20;64.50
47805;DHT22;33568;45.286;9.900;2022-07-30T10:17:48;32.20;64.40
47805;DHT22;33568;45.286;9.900;2022-07-30T10:20:41;32.20;64.40
47805;DHT22;33568;45.286;9.900;2022-07-30T10:23:35;32.30;64.10
47805;DHT22;33568;45.286;9.900;2022-07-30T10:26:20;32.30;64.10
47805;DHT22;33568;45.286;9.900;2022-07-30T10:29:24;32.40;63.80
47805;DHT22;33568;45.286;9.900;2022-07-30T10:31:51;32.40;64.20
47805;DHT22;33568;45.286;9.900;2022-07-30T10:34:18;32.60;63.80
47805;DHT22;33568;45.286;9.900;2022-07-30T10:36:59;32.90;63.20
47805;DHT22;33568;45.286;9.900;2022-07-30T10:39:33;32.90;62.80
47805;DHT22;33568;45.286;9.900;2022-07-30T10:47:31;33.30;62.30
47805;DHT22;33568;45.286;9.900;2022-07-30T10:50:15;33.40;62.50
47805;DHT22;33568;45.286;9.900;2022-07-30T10:55:23;33.50;62.00
47805;DHT22;33568;45.286;9.900;2022-07-30T10:58:04;33.50;61.50
47805;DHT22;33568;45.286;9.900;2022-07-30T11:03:22;33.30;60.60
47805;DHT22;33568;45.286;9.900;2022-07-30T11:08:37;33.20;61.10
47805;DHT22;33568;45.286;9.900;2022-07-30T11:13:57;33.40;61.70
47805;DHT22;33568;45.286;9.900;2022-07-30T11:19:14;33.60;60.30
47805;DHT22;33568;45.286;9.900;2022-07-30T11:24:47;33.70;58.50
47805;DHT22;33568;45.286;9.900;2022-07-30T11:27:33;33.80;59.00
47805;DHT22;33568;45.286;9.900;2022-07-30T11:30:00;33.80;58.50
47805;DHT22;33568;45.286;9.900;2022-07-30T11:32:29;33.90;59.20
47805;DHT22;33568;45.286;9.900;2022-07-30T11:40:33;34.40;56.50
47805;DHT22;33568;45.286;9.900;2022-07-30T11:43:23;34.50;57.50
47805;DHT22;33568;45.286;9.900;2022-07-30T11:48:38;34.60;56.60
47805;DHT22;33568;45.286;9.900;2022-07-30T11:51:05;34.70;57.00
47805;DHT22;33568;45.286;9.900;2022-07-30T11:53:32;34.70;56.50
47805;DHT22;33568;45.286;9.900;2022-07-30T11:55:59;34.70;56.30
47805;DHT22;33568;45.286;9.900;2022-07-30T11:58:33;34.60;57.30
47805;DHT22;33568;45.286;9.900;2022-07-30T12:01:12;34.70;57.30
47805;DHT22;33568;45.286;9.900;2022-07-30T12:03:41;34.80;56.10
47805;DHT22;33568;45.286;9.900;2022-07-30T12:06:10;35.00;55.30
47805;DHT22;33568;45.286;9.900;2022-07-30T12:08:43;35.00;54.90
47805;DHT22;33568;45.286;9.900;2022-07-30T12:11:10;35.00;55.20
47805;DHT22;33568;45.286;9.900;2022-07-30T12:13:38;34.90;55.70
47805;DHT22;33568;45.286;9.900;2022-07-30T12:16:07;35.10;56.30
47805;DHT22;33568;45.286;9.900;2022-07-30T12:18:35;35.20;56.20
47805;DHT22;33568;45.286;9.900;2022-07-30T12:21:04;35.20;55.80
47805;DHT22;33568;45.286;9.900;2022-07-30T12:23:31;35.20;56.00
47805;DHT22;33568;45.286;9.900;2022-07-30T12:25:57;35.30;55.30
47805;DHT22;33568;45.286;9.900;2022-07-30T12:28:26;35.30;54.30
47805;DHT22;33568;45.286;9.900;2022-07-30T12:30:53;35.40;53.70
47805;DHT22;33568;45.286;9.900;2022-07-30T12:33:20;35.40;53.40
47805;DHT22;33568;45.286;9.900;2022-07-30T12:35:50;35.40;53.70
47805;DHT22;33568;45.286;9.900;2022-07-30T12:38:18;35.30;53.70
47805;DHT22;33568;45.286;9.900;2022-07-30T12:40:54;35.40;53.10
47805;DHT22;33568;45.286;9.900;2022-07-30T12:43:41;35.50;52.90
47805;DHT22;33568;45.286;9.900;2022-07-30T12:46:09;35.30;53.70
47805;DHT22;33568;45.286;9.900;2022-07-30T12:48:36;35.30;53.80
47805;DHT22;33568;45.286;9.900;2022-07-30T12:51:07;35.40;53.90
47805;DHT22;33568;45.286;9.900;2022-07-30T12:53:34;35.60;53.70
47805;DHT22;33568;45.286;9.900;2022-07-30T12:56:15;35.60;53.70
47805;DHT22;33568;45.286;9.900;2022-07-30T12:58:42;35.70;52.30
47805;DHT22;33568;45.286;9.900;2022-07-30T13:01:09;35.60;52.60
47805;DHT22;33568;45.286;9.900;2022-07-30T13:03:36;35.60;52.30
47805;DHT22;33568;45.286;9.900;2022-07-30T13:06:14;35.60;51.80
47805;DHT22;33568;45.286;9.900;2022-07-30T13:08:46;35.70;50.80
47805;DHT22;33568;45.286;9.900;2022-07-30T13:11:14;35.60;50.60
47805;DHT22;33568;45.286;9.900;2022-07-30T13:13:41;35.60;50.70
47805;DHT22;33568;45.286;9.900;2022-07-30T13:16:09;35.60;49.40
47805;DHT22;33568;45.286;9.900;2022-07-30T13:18:36;35.60;49.40
47805;DHT22;33568;45.286;9.900;2022-07-30T13:21:04;35.60;48.90
47805;DHT22;33568;45.286;9.900;2022-07-30T13:23:35;35.40;48.90
47805;DHT22;33568;45.286;9.900;2022-07-30T13:26:02;35.50;49.30
47805;DHT22;33568;45.286;9.900;2022-07-30T13:28:29;35.50;50.10
47805;DHT22;33568;45.286;9.900;2022-07-30T13:30:57;35.60;49.60
47805;DHT22;33568;45.286;9.900;2022-07-30T13:33:23;35.50;48.90
47805;DHT22;33568;45.286;9.900;2022-07-30T13:35:50;35.50;48.50
47805;DHT22;33568;45.286;9.900;2022-07-30T13:38:16;35.60;48.70
47805;DHT22;33568;45.286;9.900;2022-07-30T13:40:42;35.80;49.10
47805;DHT22;33568;45.286;9.900;2022-07-30T13:43:10;36.00;49.00
47805;DHT22;33568;45.286;9.900;2022-07-30T13:45:36;36.10;49.00
47805;DHT22;33568;45.286;9.900;2022-07-30T13:48:04;36.20;48.80
47805;DHT22;33568;45.286;9.900;2022-07-30T13:50:31;36.30;48.80
47805;DHT22;33568;45.286;9.900;2022-07-30T13:52:58;36.20;47.80
47805;DHT22;33568;45.286;9.900;2022-07-30T13:55:25;36.20;47.10
47805;DHT22;33568;45.286;9.900;2022-07-30T13:57:54;36.20;47.30
47805;DHT22;33568;45.286;9.900;2022-07-30T14:00:21;36.20;47.80
47805;DHT22;33568;45.286;9.900;2022-07-30T14:02:50;36.20;47.80
47805;DHT22;33568;45.286;9.900;2022-07-30T14:05:16;36.20;46.50
47805;DHT22;33568;45.286;9.900;2022-07-30T14:07:43;36.10;45.90
47805;DHT22;33568;45.286;9.900;2022-07-30T14:10:09;36.10;45.70
47805;DHT22;33568;45.286;9.900;2022-07-30T14:12:36;36.20;46.30
47805;DHT22;33568;45.286;9.900;2022-07-30T14:15:03;36.20;45.70
47805;DHT22;33568;45.286;9.900;2022-07-30T14:17:30;36.30;45.50
47805;DHT22;33568;45.286;9.900;2022-07-30T14:19:56;36.40;45.30
47805;DHT22;33568;45.286;9.900;2022-07-30T14:22:23;36.30;45.50
47805;DHT22;33568;45.286;9.900;2022-07-30T14:24:50;36.40;45.80
47805;DHT22;33568;45.286;9.900;2022-07-30T14:27:16;36.40;45.80
47805;DHT22;33568;45.286;9.900;2022-07-30T14:29:46;36.50;45.50
47805;DHT22;33568;45.286;9.900;2022-07-30T14:32:13;36.50;44.90
47805;DHT22;33568;45.286;9.900;2022-07-30T14:34:39;36.50;44.40
47805;DHT22;33568;45.286;9.900;2022-07-30T14:37:06;36.40;43.90
47805;DHT22;33568;45.286;9.900;2022-07-30T14:39:33;36.20;43.00
47805;DHT22;33568;45.286;9.900;2022-07-30T14:42:02;36.10;43.30
47805;DHT22;33568;45.286;9.900;2022-07-30T14:44:33;36.10;43.90
47805;DHT22;33568;45.286;9.900;2022-07-30T14:46:59;36.30;43.40
47805;DHT22;33568;45.286;9.900;2022-07-30T14:49:26;36.40;43.70
47805;DHT22;33568;45.286;9.900;2022-07-30T14:51:53;36.50;44.50
47805;DHT22;33568;45.286;9.900;2022-07-30T14:54:20;36.60;44.20
47805;DHT22;33568;45.286;9.900;2022-07-30T14:56:46;36.60;43.70
47805;DHT22;33568;45.286;9.900;2022-07-30T14:59:13;36.70;44.10
47805;DHT22;33568;45.286;9.900;2022-07-30T15:01:40;36.70;43.30
47805;DHT22;33568;45.286;9.900;2022-07-30T15:04:07;36.70;42.60
47805;DHT22;33568;45.286;9.900;2022-07-30T15:06:36;36.70;42.20
47805;DHT22;33568;45.286;9.900;2022-07-30T15:09:03;36.80;42.50
47805;DHT22;33568;45.286;9.900;2022-07-30T15:11:32;36.80;42.10
47805;DHT22;33568;45.286;9.900;2022-07-30T15:13:58;36.90;41.80
47805;DHT22;33568;45.286;9.900;2022-07-30T15:16:25;36.80;41.50
47805;DHT22;33568;45.286;9.900;2022-07-30T15:18:51;36.70;42.40
47805;DHT22;33568;45.286;9.900;2022-07-30T15:21:18;36.70;42.70
47805;DHT22;33568;45.286;9.900;2022-07-30T15:23:45;36.60;42.00
47805;DHT22;33568;45.286;9.900;2022-07-30T15:26:12;36.60;42.40
47805;DHT22;33568;45.286;9.900;2022-07-30T15:28:38;36.60;43.10
47805;DHT22;33568;45.286;9.900;2022-07-30T15:31:05;36.60;42.90
47805;DHT22;33568;45.286;9.900;2022-07-30T15:33:35;36.60;43.10
47805;DHT22;33568;45.286;9.900;2022-07-30T15:36:02;36.60;43.10
47805;DHT22;33568;45.286;9.900;2022-07-30T15:38:28;36.50;43.00
47805;DHT22;33568;45.286;9.900;2022-07-30T15:40:55;36.50;42.10
47805;DHT22;33568;45.286;9.900;2022-07-30T15:43:21;36.50;42.00
47805;DHT22;33568;45.286;9.900;2022-07-30T15:45:47;36.60;42.00
47805;DHT22;33568;45.286;9.900;2022-07-30T15:48:14;36.60;41.20
47805;DHT22;33568;45.286;9.900;2022-07-30T15:50:40;36.40;40.80
47805;DHT22;33568;45.286;9.900;2022-07-30T15:53:08;36.30;41.10
47805;DHT22;33568;45.286;9.900;2022-07-30T15:55:36;36.30;41.30
47805;DHT22;33568;45.286;9.900;2022-07-30T15:58:03;36.30;41.20
47805;DHT22;33568;45.286;9.900;2022-07-30T16:00:29;36.30;40.70
47805;DHT22;33568;45.286;9.900;2022-07-30T16:02:55;36.20;40.10
47805;DHT22;33568;45.286;9.900;2022-07-30T16:05:22;36.20;39.90
47805;DHT22;33568;45.286;9.900;2022-07-30T16:07:48;36.20;40.50
47805;DHT22;33568;45.286;9.900;2022-07-30T16:10:15;36.30;41.50
47805;DHT22;33568;45.286;9.900;2022-07-30T16:12:41;36.40;40.40
47805;DHT22;33568;45.286;9.900;2022-07-30T16:15:08;36.40;40.70
47805;DHT22;33568;45.286;9.900;2022-07-30T16:17:35;36.40;41.00
47805;DHT22;33568;45.286;9.900;2022-07-30T16:20:01;36.40;40.30
47805;DHT22;33568;45.286;9.900;2022-07-30T16:22:29;36.40;40.60
47805;DHT22;33568;45.286;9.900;2022-07-30T16:24:55;36.40;41.00
47805;DHT22;33568;45.286;9.900;2022-07-30T16:27:21;36.40;40.50
47805;DHT22;33568;45.286;9.900;2022-07-30T16:29:48;36.40;40.00